USCGC Eagle — NRCB — position and weather

sailwx.info

Track history (hours):
 
Tides and Currents Weather Stations Pressure Air Temp Water Temp Dewpoint Dewpoint Depression Visibility Wind Speed Wind Dir Waves Ship Positions

USCGC Eagle (United States)

Training ship of US Coast Guard Academy, and only square-rigger in active service in the US armed services. Ex German ship Horst Wessel.

Ship's website: http://www.cga.edu/eagle/

Last reported at 2019-Apr-25 11:58 UTC. Time now 2019-Apr-25 12:30 UTC.
Position N 50°45' W 001°06'.

Type: Sailing vessel. MMSI: 303990000.

Date/timePositionNaut miles runAvg speedWind from/ knotsBaromVisibWave heightAir tempDewpointWater temp
2019-Apr-25 11:58N 50°45' W 001°06'0 0.0
2019-Apr-25 11:29N 50°45' W 001°06'0 0.0
2019-Apr-25 10:58N 50°45' W 001°06'0 0.1
2019-Apr-25 10:28N 50°45' W 001°06'1 1.1
2019-Apr-25 10:00N 50°46' W 001°07'3 6.7
2019-Apr-25 09:30N 50°47' W 001°12'69 2.8
2019-Apr-24 08:38N 50°23' W 002°54'1 7.4
2019-Apr-24 08:29N 50°22' W 002°55'14 0.7
2019-Apr-23 12:31N 50°09' W 002°51'010.2
2019-Apr-23 12:30N 50°09' W 002°51'510.4
2019-Apr-23 12:00N 50°07' W 002°58'510.7
2019-Apr-23 11:30N 50°05' W 003°06'510.4
2019-Apr-23 11:00N 50°02' W 003°13'510.0
2019-Apr-23 10:31N 49°60' W 003°20'611.2
2019-Apr-23 10:00N 49°57' W 003°27'4 8.1
2019-Apr-23 09:30N 49°55' W 003°32'510.8
2019-Apr-23 09:00N 49°52' W 003°40'611.0
2019-Apr-23 08:30N 49°49' W 003°47'151 6.8
2019-Apr-22 10:21N 50°35' W 007°32'4 9.1
2019-Apr-22 09:56N 50°35' W 007°38'4 9.4
2019-Apr-22 09:31N 50°34' W 007°45'5 9.6
2019-Apr-22 09:01N 50°34' W 007°52'6 9.8
2019-Apr-22 08:24N 50°33' W 008°01'  
Track history (hours):
 
Tides and Currents Weather Stations Pressure Air Temp Water Temp Dewpoint Dewpoint Depression Visibility Wind Speed Wind Dir Waves Ship Positions

USCGC Eagle (United States)

Training ship of US Coast Guard Academy, and only square-rigger in active service in the US armed services. Ex German ship Horst Wessel.

Ship's website: http://www.cga.edu/eagle/

Last reported at 2019-Apr-25 11:58 UTC. Time now 2019-Apr-25 12:30 UTC.
Position N 50°45' W 001°06'.

Type: Sailing vessel. MMSI: 303990000.

Date/timePositionNaut miles runAvg speedWind from/ knotsBaromVisibWave heightAir tempDewpointWater temp
2019-Apr-25 11:58N 50°45' W 001°06'0 0.0
2019-Apr-25 11:29N 50°45' W 001°06'0 0.0
2019-Apr-25 10:58N 50°45' W 001°06'0 0.1
2019-Apr-25 10:28N 50°45' W 001°06'1 1.1
2019-Apr-25 10:00N 50°46' W 001°07'3 6.7
2019-Apr-25 09:30N 50°47' W 001°12'69 2.8
2019-Apr-24 08:38N 50°23' W 002°54'1 7.4
2019-Apr-24 08:29N 50°22' W 002°55'14 0.7
2019-Apr-23 12:31N 50°09' W 002°51'010.2
2019-Apr-23 12:30N 50°09' W 002°51'510.4
2019-Apr-23 12:00N 50°07' W 002°58'510.7
2019-Apr-23 11:30N 50°05' W 003°06'510.4
2019-Apr-23 11:00N 50°02' W 003°13'510.0
2019-Apr-23 10:31N 49°60' W 003°20'611.2
2019-Apr-23 10:00N 49°57' W 003°27'4 8.1
2019-Apr-23 09:30N 49°55' W 003°32'510.8
2019-Apr-23 09:00N 49°52' W 003°40'611.0
2019-Apr-23 08:30N 49°49' W 003°47'151 6.8
2019-Apr-22 10:21N 50°35' W 007°32'4 9.1
2019-Apr-22 09:56N 50°35' W 007°38'4 9.4
2019-Apr-22 09:31N 50°34' W 007°45'5 9.6
2019-Apr-22 09:01N 50°34' W 007°52'6 9.8
2019-Apr-22 08:24N 50°33' W 008°01'  

Dump ship's entire track history